Aeroporto :
LOGIN :

Iscrizione | Disclaimer

   EN    FR    IT 

 










Sommario :    VFR   VFR Marginale   IFR   IFR Intensivo   IFR Molto Intensivo
Visibilità : 
Base nubi : 
>= 8 km
>= 3000ft
5 / 8 km
1000 / 3000 ft
1500m / 5 km
500 / 1000 ft
800 / 1500m
200 / 500 ft
< 800m
< 200 ft
Simboli :   Temporali  Nebbia  Neve Forte  Precipitazioni Forti  Vento > 20 kt
SIGMETs :   Varie  Temporali  Ghiacco  Turbolenza  Onda orograficha  Ceneri Vulcaniche






- Altitudine del aeroporto : 179 ft
- Codice IATA : HEL


EFHK - Helsinki Vantaa

ULTIMO METAR :
  • 090750Z 29012KT 9999 FEW028 06/M01 Q1005 NOSIG

METARs OBSOLETI :
  • 090720Z 30012KT 260V340 9999 FEW025 BKN011 06/M01 Q1005 NOSIG
  • 090650Z 30012KT 9999 FEW025 06/M01 Q1005 NOSIG
  • 090620Z 30016KT 9999 FEW025 06/00 Q1005 NOSIG
  • 090550Z 29013KT 9999 FEW020 05/01 Q1004 NOSIG
  • 090520Z 28008KT 9999 -RA FEW045CB 05/02 Q1004 BECMG BKN045

TAF TAF EFHK
Valido dal 09 a 06 ore il 10 a 06 ore UTC


090526Z 0906/1006 30012KT 9999 FEW045CB
BECMG 0906/0907 FEW045
TEMPO 0910/0916 FEW040CB
TEMPO 1003/1006 4000 -SHSN BKN013 SCT020CB



MetMap, La meteo Aeronautica in un colpo d'occhio ! - Copyright ORBIFLY Dicembre 2007 - Disclaimer

ORBIFLY MET'MAP TEAM :

Programmazione e sviluppo : Alexandra Zaïnal
Concezione : Baudouin d'Aumeries
Aiuto per la programmazione : Marc-Olivier Méhu
Supporto tecnico e logistico : Manuel Goepfert
Aiuto per la traduzione : Arnaldo La Scala

Contatto : metmap@orbifly.com




FONTI E CREDITI :

   NOAA